Terminal Aerodrome Forecast
Issued by NWS Corpus Christi, TX

Home | Current Version | Previous Version | Text Only | Print | Product List | Glossary On
Versions: 1 2 3 4 5 6 7 8 9 10 11 12 13 14 15 16
180
FTUS44 KCRP 211726
TAFVCT
TAF
KVCT 211726Z 2118/2218 10011KT P6SM VCSH SCT040
     FM212000 13008KT P6SM FEW035
     FM221500 15005KT P6SM SCT025 SCT035=

USA.gov is the U.S. government's official web portal to all federal, state and local government web resources and services.